Bennington, Vermont
Current Conditions -  °F | °C
As of 9:54 PM on Monday 20 Oct 2014 (Local Time) from KDDH Reporting Station
Overcast Overcast  
Wind Chill: 51°   Ceiling: 9000
Heat Index: 51°   Visibility: 10mi
Dew Point: 36°   Wind: 5mph
Humidity: 56%   Direction: NA
Pressure: 29.94"   Gusts: NA
Location:  42.88°N, 73.2°W
Report Text: KDDH 210154Z AUTO VRB04KT 10SM SCT070 OVC090 11/02 A2994 RMK AO2 SLP142 T01060022
Loading
Personal Weather Stations






























Interactive Weather Map
Tropical Storm Tracking
New forecast layout! Learn more

10-Day Weather Forecast

Advertisements
Track Severe Weather on mobile